Time;durP1;ratioP1;P1;durP2;ratioP2;P2;SDS_P1;SDS_P2;PMS_P1;PMS_P2;Temp;Humidity;BMP_temperature;BMP_pressure;BME280_temperature;BME280_humidity;BME280_pressure;Samples;Min_cycle;Max_cycle;Signal;HPM_P1;HPM_P2
2023/09/20 00:02:00;;;;;;;0.50;0.50;;;;;12.60;95982.00;;;;5033138;28;20201;-64
2023/09/20 00:04:29;;;;;;;0.60;0.60;;;;;12.70;95985.00;;;;5033031;28;20735;-64
2023/09/20 00:06:57;;;;;;;0.60;0.60;;;;;12.60;95993.00;;;;5033256;28;20199;-64
2023/09/20 00:09:24;;;;;;;0.60;0.60;;;;;12.70;95990.00;;;;5033027;28;20193;-64
2023/09/20 00:11:53;;;;;;;1.20;0.90;;;;;12.70;95983.00;;;;5032904;28;20216;-65
2023/09/20 00:14:20;;;;;;;0.70;0.70;;;;;12.70;95980.00;;;;5031634;28;20200;-65
2023/09/20 00:16:47;;;;;;;14.53;1.17;;;;;12.40;95982.00;;;;5033058;28;20294;-65
2023/09/20 00:19:15;;;;;;;0.90;0.83;;;;;12.30;95984.00;;;;5033315;28;20189;-64
2023/09/20 00:21:43;;;;;;;0.93;0.93;;;;;12.30;95985.00;;;;5032900;28;20385;-64
2023/09/20 00:24:11;;;;;;;0.67;0.67;;;;;12.30;95979.00;;;;5032827;28;20192;-64
2023/09/20 00:26:38;;;;;;;0.60;0.60;;;;;12.30;95977.00;;;;5035444;28;20188;-65
2023/09/20 00:29:07;;;;;;;0.70;0.70;;;;;12.30;95970.00;;;;5037004;28;20193;-65
2023/09/20 00:31:35;;;;;;;0.80;0.80;;;;;12.30;95977.00;;;;5036745;28;20208;-65
2023/09/20 00:34:03;;;;;;;0.60;0.60;;;;;12.30;95977.00;;;;5037228;28;20197;-65
2023/09/20 00:36:31;;;;;;;1.13;1.13;;;;;12.40;95979.00;;;;5036995;28;20220;-65
2023/09/20 00:39:00;;;;;;;0.60;0.60;;;;;12.40;95971.00;;;;5037031;28;20243;-65
2023/09/20 00:41:27;;;;;;;0.70;0.70;;;;;12.20;95963.00;;;;5036803;28;20209;-65
2023/09/20 00:43:55;;;;;;;0.50;0.50;;;;;12.20;95959.00;;;;5036577;28;20721;-65
2023/09/20 00:46:22;;;;;;;0.87;0.87;;;;;12.30;95958.00;;;;5036673;28;20197;-65
2023/09/20 00:48:53;;;;;;;0.57;0.57;;;;;12.20;95959.00;;;;5036762;28;20189;-65
2023/09/20 00:51:22;;;;;;;0.80;0.80;;;;;12.30;95960.00;;;;5036440;28;20732;-65
2023/09/20 00:53:50;;;;;;;0.83;0.83;;;;;12.30;95963.00;;;;5036402;28;20201;-65
2023/09/20 00:56:18;;;;;;;0.50;0.50;;;;;12.30;95956.00;;;;5036354;28;20197;-65
2023/09/20 00:58:46;;;;;;;1.00;1.00;;;;;12.20;95953.00;;;;5036226;28;20203;-65
2023/09/20 01:01:15;;;;;;;1.07;1.07;;;;;12.20;95951.00;;;;5036460;28;20212;-65
2023/09/20 01:03:44;;;;;;;3.60;1.03;;;;;12.20;95952.00;;;;5036338;28;20203;-65
2023/09/20 01:06:15;;;;;;;0.60;0.60;;;;;12.20;95948.00;;;;5036136;28;20219;-65
2023/09/20 01:08:42;;;;;;;0.60;0.60;;;;;12.20;95952.00;;;;5035838;28;20202;-65
2023/09/20 01:11:10;;;;;;;0.70;0.70;;;;;12.30;95959.00;;;;5036145;28;20557;-65
2023/09/20 01:13:40;;;;;;;0.67;0.67;;;;;12.30;95951.00;;;;5036084;28;20197;-65
2023/09/20 01:16:09;;;;;;;0.70;0.70;;;;;12.30;95960.00;;;;5036304;28;20177;-65
2023/09/20 01:18:36;;;;;;;0.50;0.50;;;;;12.40;95963.00;;;;5035755;28;20231;-65
2023/09/20 01:21:05;;;;;;;0.60;0.60;;;;;12.40;95958.00;;;;5036022;28;20603;-65
2023/09/20 01:23:35;;;;;;;0.77;0.77;;;;;12.40;95963.00;;;;5036024;28;20189;-65
2023/09/20 01:26:03;;;;;;;0.60;0.60;;;;;12.30;95967.00;;;;5036844;28;20220;-65
2023/09/20 01:28:31;;;;;;;0.87;0.87;;;;;12.30;95959.00;;;;5035911;28;20196;-65
2023/09/20 01:31:00;;;;;;;0.80;0.80;;;;;12.40;95960.00;;;;5035909;28;20216;-65
2023/09/20 01:33:27;;;;;;;0.83;0.83;;;;;12.30;95955.00;;;;5036287;28;20615;-65
2023/09/20 01:35:55;;;;;;;0.60;0.60;;;;;12.30;95952.00;;;;5035910;28;20200;-65
2023/09/20 01:38:23;;;;;;;0.70;0.70;;;;;12.10;95948.00;;;;5035463;28;20215;-65
2023/09/20 01:40:55;;;;;;;1.07;1.07;;;;;12.10;95949.00;;;;5035738;28;20204;-64
2023/09/20 01:43:23;;;;;;;0.70;0.70;;;;;12.00;95952.00;;;;5035817;28;20216;-65
2023/09/20 01:45:50;;;;;;;0.70;0.70;;;;;12.00;95954.00;;;;5036011;28;20224;-65
2023/09/20 01:48:18;;;;;;;1.33;1.00;;;;;12.10;95956.00;;;;5035514;28;20224;-65
2023/09/20 01:50:47;;;;;;;0.70;0.70;;;;;12.10;95956.00;;;;5035418;28;20204;-65
2023/09/20 01:53:14;;;;;;;0.63;0.63;;;;;12.10;95947.00;;;;5036129;28;20250;-65
2023/09/20 01:55:42;;;;;;;0.70;0.70;;;;;12.00;95947.00;;;;5035558;28;20668;-65
2023/09/20 01:58:12;;;;;;;0.70;0.70;;;;;12.00;95949.00;;;;5035372;28;20295;-65
2023/09/20 02:00:41;;;;;;;1.90;1.17;;;;;12.00;95944.00;;;;5035169;28;20766;-65
2023/09/20 02:03:13;;;;;;;0.70;0.70;;;;;11.90;95946.00;;;;5035315;28;20188;-65
2023/09/20 02:05:41;;;;;;;0.70;0.70;;;;;11.90;95946.00;;;;5035476;28;20264;-65
2023/09/20 02:08:09;;;;;;;0.80;0.80;;;;;12.00;95952.00;;;;5035270;28;20715;-65
2023/09/20 02:10:37;;;;;;;0.80;0.80;;;;;12.10;95938.00;;;;5035611;28;20219;-65
2023/09/20 02:13:05;;;;;;;1.30;1.20;;;;;12.10;95936.00;;;;5035042;28;20222;-65
2023/09/20 02:15:35;;;;;;;0.60;0.60;;;;;12.10;95935.00;;;;5035592;28;20239;-65
2023/09/20 02:18:05;;;;;;;0.70;0.70;;;;;12.00;95923.00;;;;5035025;28;20212;-65
2023/09/20 02:20:36;;;;;;;0.63;0.63;;;;;11.90;95927.00;;;;5034905;28;20286;-65
2023/09/20 02:23:04;;;;;;;0.83;0.83;;;;;11.80;95932.00;;;;5035403;28;20185;-65
2023/09/20 02:25:32;;;;;;;1.00;1.00;;;;;11.70;95929.00;;;;5035061;28;20251;-65
2023/09/20 02:28:01;;;;;;;0.40;0.40;;;;;11.70;95938.00;;;;5035370;28;20193;-65
2023/09/20 02:30:32;;;;;;;0.50;0.50;;;;;11.70;95928.00;;;;5034775;28;20223;-65
2023/09/20 02:33:05;;;;;;;0.87;0.87;;;;;11.70;95926.00;;;;5034957;28;20192;-65
2023/09/20 02:35:34;;;;;;;0.73;0.73;;;;;11.80;95929.00;;;;5034642;28;20555;-65
2023/09/20 02:38:04;;;;;;;0.60;0.60;;;;;11.70;95929.00;;;;5034569;28;20216;-65
2023/09/20 02:40:34;;;;;;;0.60;0.60;;;;;11.70;95925.00;;;;5034425;28;20213;-65
2023/09/20 02:43:03;;;;;;;1.03;1.03;;;;;11.60;95932.00;;;;5034020;28;20236;-65
2023/09/20 02:45:33;;;;;;;0.40;0.40;;;;;11.60;95938.00;;;;5034416;28;20200;-65
2023/09/20 02:48:06;;;;;;;1.70;1.37;;;;;11.70;95933.00;;;;5034412;28;20625;-65
2023/09/20 02:50:34;;;;;;;0.60;0.60;;;;;11.50;95929.00;;;;5033842;28;20544;-65
2023/09/20 02:53:01;;;;;;;1.47;1.37;;;;;11.60;95927.00;;;;5034344;28;20630;-65
2023/09/20 02:55:31;;;;;;;0.50;0.50;;;;;11.50;95923.00;;;;5034411;28;20247;-65
2023/09/20 02:57:58;;;;;;;0.87;0.87;;;;;11.40;95922.00;;;;5034115;28;20231;-70
2023/09/20 03:00:30;;;;;;;0.70;0.70;;;;;11.50;95918.00;;;;5034733;28;20295;-65
2023/09/20 03:03:00;;;;;;;0.70;0.70;;;;;11.40;95920.00;;;;5034291;28;20260;-65
2023/09/20 03:05:30;;;;;;;0.90;0.90;;;;;11.50;95908.00;;;;5034666;28;20181;-64
2023/09/20 03:07:58;;;;;;;0.70;0.70;;;;;11.50;95913.00;;;;5034250;28;20195;-64
2023/09/20 03:10:28;;;;;;;0.73;0.73;;;;;11.50;95896.00;;;;5033946;28;20308;-64
2023/09/20 03:12:57;;;;;;;0.83;0.83;;;;;11.60;95901.00;;;;5034399;28;20272;-64
2023/09/20 03:15:28;;;;;;;0.70;0.70;;;;;11.30;95902.00;;;;5033860;28;20687;-64
2023/09/20 03:18:00;;;;;;;0.50;0.50;;;;;11.20;95903.00;;;;5033799;28;20207;-64
2023/09/20 03:20:32;;;;;;;0.70;0.70;;;;;11.20;95903.00;;;;5033772;28;20582;-65
2023/09/20 03:23:00;;;;;;;0.80;0.80;;;;;11.10;95892.00;;;;5034120;28;20185;-64
2023/09/20 03:25:29;;;;;;;0.70;0.70;;;;;11.20;95886.00;;;;5033661;28;20660;-64
2023/09/20 03:27:57;;;;;;;26.13;1.47;;;;;11.20;95884.00;;;;5033916;28;20203;-64
2023/09/20 03:30:28;;;;;;;0.60;0.60;;;;;11.30;95885.00;;;;5033610;28;20529;-64
2023/09/20 03:32:56;;;;;;;0.60;0.60;;;;;11.30;95879.00;;;;5034041;28;20251;-64
2023/09/20 03:35:23;;;;;;;0.80;0.80;;;;;11.40;95883.00;;;;5033687;28;20197;-64
2023/09/20 03:37:52;;;;;;;0.90;0.90;;;;;11.30;95881.00;;;;5016025;28;20683;-64
2023/09/20 03:40:22;;;;;;;0.60;0.60;;;;;11.20;95873.00;;;;5033622;28;20637;-64
2023/09/20 03:42:52;;;;;;;0.60;0.60;;;;;11.20;95878.00;;;;5033518;28;20231;-64
2023/09/20 03:45:19;;;;;;;0.73;0.73;;;;;11.10;95877.00;;;;5033380;28;20559;-64
2023/09/20 03:47:49;;;;;;;0.60;0.60;;;;;11.20;95884.00;;;;5032109;28;20215;-64
2023/09/20 03:50:18;;;;;;;0.70;0.70;;;;;11.20;95874.00;;;;5033558;28;20239;-64
2023/09/20 03:52:46;;;;;;;0.63;0.63;;;;;11.20;95873.00;;;;5033467;28;20185;-64
2023/09/20 03:55:16;;;;;;;0.90;0.90;;;;;11.30;95873.00;;;;5033412;28;20196;-64
2023/09/20 03:57:43;;;;;;;0.60;0.60;;;;;11.30;95871.00;;;;5032663;28;20231;-65
2023/09/20 04:00:16;;;;;;;0.70;0.70;;;;;11.20;95876.00;;;;5032759;28;20259;-64
2023/09/20 04:02:44;;;;;;;0.60;0.60;;;;;11.10;95880.00;;;;5033713;28;20177;-64
2023/09/20 04:05:13;;;;;;;0.60;0.60;;;;;11.10;95874.00;;;;5033131;28;20298;-64
2023/09/20 04:07:41;;;;;;;1.37;1.33;;;;;11.00;95884.00;;;;5033101;28;20685;-64
2023/09/20 04:10:09;;;;;;;0.70;0.70;;;;;11.00;95866.00;;;;5033212;28;20221;-64
2023/09/20 04:12:38;;;;;;;1.30;1.30;;;;;11.00;95869.00;;;;5033217;28;20193;-64
2023/09/20 04:15:07;;;;;;;0.83;0.83;;;;;10.90;95872.00;;;;5033072;28;20192;-64
2023/09/20 04:17:35;;;;;;;0.70;0.70;;;;;10.90;95870.00;;;;5033224;28;20235;-64
2023/09/20 04:20:05;;;;;;;0.60;0.60;;;;;10.90;95875.00;;;;5032936;28;20299;-65
2023/09/20 04:22:32;;;;;;;0.50;0.50;;;;;10.90;95866.00;;;;5032988;28;20189;-65
2023/09/20 04:25:00;;;;;;;0.77;0.77;;;;;11.10;95861.00;;;;5033038;28;20196;-65
2023/09/20 04:27:28;;;;;;;1.00;0.83;;;;;11.30;95862.00;;;;5033018;28;20200;-65
2023/09/20 04:29:56;;;;;;;0.70;0.70;;;;;11.50;95852.00;;;;5031677;28;20252;-65
2023/09/20 04:32:24;;;;;;;1.60;1.50;;;;;11.60;95854.00;;;;5033177;28;20192;-64
2023/09/20 04:34:53;;;;;;;0.83;0.83;;;;;11.60;95852.00;;;;5033170;28;20559;-64
2023/09/20 04:37:22;;;;;;;0.77;0.77;;;;;11.50;95842.00;;;;5032802;28;20276;-65
2023/09/20 04:39:50;;;;;;;0.53;0.53;;;;;11.50;95847.00;;;;5033129;28;20553;-64
2023/09/20 04:42:18;;;;;;;1.10;1.10;;;;;11.40;95849.00;;;;5032934;28;20236;-64
2023/09/20 04:44:45;;;;;;;1.20;1.20;;;;;11.20;95845.00;;;;5032846;28;20197;-65
2023/09/20 04:47:16;;;;;;;0.70;0.70;;;;;11.10;95844.00;;;;5032784;28;20196;-64
2023/09/20 04:49:44;;;;;;;0.60;0.60;;;;;11.00;95841.00;;;;5033097;28;20181;-65
2023/09/20 04:52:13;;;;;;;0.83;0.70;;;;;11.00;95832.00;;;;5032893;28;20192;-64
2023/09/20 04:54:40;;;;;;;0.90;0.90;;;;;10.90;95845.00;;;;5033002;28;20197;-64
2023/09/20 04:57:08;;;;;;;0.90;0.90;;;;;11.00;95837.00;;;;5033033;28;20197;-64
2023/09/20 04:59:36;;;;;;;0.70;0.70;;;;;11.00;95834.00;;;;5032609;28;20228;-64
2023/09/20 05:02:03;;;;;;;0.60;0.60;;;;;11.00;95842.00;;;;5032808;28;20632;-64
2023/09/20 05:04:34;;;;;;;3.77;3.47;;;;;10.90;95849.00;;;;5032702;28;20664;-64
2023/09/20 05:07:05;;;;;;;1.07;1.07;;;;;10.90;95848.00;;;;5032776;28;20181;-65
2023/09/20 05:09:34;;;;;;;0.90;0.90;;;;;10.90;95847.00;;;;5032787;28;20173;-65
2023/09/20 05:12:02;;;;;;;0.90;0.90;;;;;10.90;95851.00;;;;5032488;28;20193;-64
2023/09/20 05:14:30;;;;;;;0.70;0.70;;;;;10.90;95847.00;;;;5036375;28;20232;-65
2023/09/20 05:16:58;;;;;;;0.77;0.77;;;;;10.90;95837.00;;;;5036252;28;20193;-64
2023/09/20 05:19:25;;;;;;;0.50;0.50;;;;;10.90;95850.00;;;;5036053;28;20228;-64
2023/09/20 05:21:54;;;;;;;0.70;0.70;;;;;10.90;95858.00;;;;5036101;28;20217;-64
2023/09/20 05:24:23;;;;;;;0.60;0.60;;;;;10.90;95866.00;;;;5036380;28;20611;-64
2023/09/20 05:26:50;;;;;;;1.40;1.30;;;;;10.90;95857.00;;;;5035092;28;20231;-64
2023/09/20 05:29:18;;;;;;;0.80;0.80;;;;;11.00;95854.00;;;;5036047;28;20197;-65
2023/09/20 05:31:46;;;;;;;1.50;1.50;;;;;11.10;95861.00;;;;5036068;28;20212;-65
2023/09/20 05:34:13;;;;;;;1.33;1.27;;;;;11.10;95851.00;;;;5036115;28;20276;-64
2023/09/20 05:36:43;;;;;;;1.27;0.67;;;;;11.10;95856.00;;;;5036444;28;20199;-65
2023/09/20 05:39:12;;;;;;;0.73;0.73;;;;;11.10;95856.00;;;;5036519;28;20303;-65
2023/09/20 05:41:39;;;;;;;0.63;0.63;;;;;11.00;95847.00;;;;5036128;28;20567;-65
2023/09/20 05:44:07;;;;;;;1.87;1.17;;;;;11.00;95855.00;;;;5036120;28;20220;-64
2023/09/20 05:46:35;;;;;;;1.80;1.40;;;;;11.10;95853.00;;;;5035674;28;20197;-65
2023/09/20 05:49:02;;;;;;;1.20;1.20;;;;;11.00;95849.00;;;;5035653;28;20276;-65
2023/09/20 05:51:30;;;;;;;1.10;1.10;;;;;11.00;95845.00;;;;5028219;28;20221;-63
2023/09/20 05:53:58;;;;;;;1.37;1.33;;;;;11.00;95850.00;;;;5012992;28;20209;-69
2023/09/20 05:56:26;;;;;;;0.93;0.93;;;;;10.90;95850.00;;;;5018133;28;20212;-69
2023/09/20 05:58:54;;;;;;;0.73;0.73;;;;;10.90;95851.00;;;;5014698;28;20227;-67
2023/09/20 06:01:23;;;;;;;1.57;1.47;;;;;10.90;95850.00;;;;5022472;28;20256;-68
2023/09/20 06:03:56;;;;;;;0.70;0.70;;;;;11.10;95854.00;;;;5027813;28;20200;-68
2023/09/20 06:06:23;;;;;;;0.93;0.93;;;;;11.20;95855.00;;;;5020359;28;20194;-69
2023/09/20 06:08:52;;;;;;;0.70;0.70;;;;;11.20;95851.00;;;;5014709;28;20194;-66
2023/09/20 06:11:20;;;;;;;0.80;0.80;;;;;11.20;95859.00;;;;5014243;28;20224;-66
2023/09/20 06:13:50;;;;;;;0.80;0.80;;;;;11.30;95860.00;;;;5023922;28;20200;-66
2023/09/20 06:16:18;;;;;;;0.50;0.50;;;;;11.20;95860.00;;;;5017235;28;20193;-66
2023/09/20 06:18:46;;;;;;;1.00;1.00;;;;;11.30;95862.00;;;;5014509;28;20231;-66
2023/09/20 06:21:14;;;;;;;0.70;0.70;;;;;11.40;95856.00;;;;5013365;28;20695;-66
2023/09/20 06:23:42;;;;;;;1.10;1.10;;;;;11.50;95854.00;;;;5014133;28;20211;-66
2023/09/20 06:26:09;;;;;;;1.03;1.03;;;;;11.60;95854.00;;;;5010701;28;20293;-66
2023/09/20 06:28:37;;;;;;;0.80;0.80;;;;;11.70;95855.00;;;;5009011;28;20209;-66
2023/09/20 06:31:06;;;;;;;0.93;0.93;;;;;11.80;95858.00;;;;5009050;28;20521;-66
2023/09/20 06:33:34;;;;;;;0.80;0.80;;;;;11.70;95842.00;;;;5021091;28;20289;-66
2023/09/20 06:36:02;;;;;;;0.70;0.70;;;;;11.70;95857.00;;;;5013370;28;20209;-66
2023/09/20 06:38:30;;;;;;;2.17;0.90;;;;;11.90;95849.00;;;;5013426;28;20232;-66
2023/09/20 06:40:57;;;;;;;2.47;1.10;;;;;11.80;95842.00;;;;5032616;28;20295;-66
2023/09/20 06:43:25;;;;;;;0.67;0.67;;;;;11.80;95831.00;;;;5013216;28;20215;-65
2023/09/20 06:45:52;;;;;;;0.90;0.90;;;;;11.90;95840.00;;;;5012962;28;20201;-66
2023/09/20 06:48:22;;;;;;;1.00;1.00;;;;;12.00;95836.00;;;;5012079;28;20208;-66
2023/09/20 06:50:50;;;;;;;0.70;0.70;;;;;12.10;95836.00;;;;4992383;28;20267;-66
2023/09/20 06:53:18;;;;;;;0.90;0.90;;;;;12.30;95833.00;;;;5012916;28;20247;-66
2023/09/20 06:55:47;;;;;;;0.63;0.63;;;;;12.30;95825.00;;;;5013867;28;20267;-66
2023/09/20 06:58:15;;;;;;;0.70;0.70;;;;;12.40;95829.00;;;;5014045;28;20750;-66
2023/09/20 07:00:42;;;;;;;1.53;1.43;;;;;12.50;95825.00;;;;5012966;28;20226;-66
2023/09/20 07:03:11;;;;;;;1.13;1.13;;;;;12.50;95826.00;;;;5014276;28;20288;-66
2023/09/20 07:05:40;;;;;;;1.00;1.00;;;;;12.60;95815.00;;;;5012568;28;20212;-66
2023/09/20 07:08:09;;;;;;;0.93;0.93;;;;;12.70;95810.00;;;;5013858;28;20208;-66
2023/09/20 07:10:41;;;;;;;1.50;1.40;;;;;12.90;95820.00;;;;5013706;28;20221;-66
2023/09/20 07:13:10;;;;;;;0.97;0.97;;;;;13.10;95813.00;;;;5013658;28;20514;-66
2023/09/20 07:15:39;;;;;;;0.70;0.70;;;;;13.10;95813.00;;;;5012821;28;20284;-66
2023/09/20 07:18:11;;;;;;;1.00;1.00;;;;;13.30;95816.00;;;;5023131;28;20205;-66
2023/09/20 07:20:41;;;;;;;0.83;0.83;;;;;13.20;95812.00;;;;5033288;28;20221;-66
2023/09/20 07:23:12;;;;;;;0.97;0.97;;;;;13.30;95817.00;;;;5033405;28;20193;-66
2023/09/20 07:25:40;;;;;;;0.87;0.87;;;;;13.40;95811.00;;;;5032942;28;20255;-66
2023/09/20 07:28:09;;;;;;;1.10;1.00;;;;;13.50;95814.00;;;;5028160;28;20193;-66
2023/09/20 07:30:44;;;;;;;0.83;0.83;;;;;13.60;95819.00;;;;5019546;28;20219;-66
2023/09/20 07:33:12;;;;;;;0.70;0.70;;;;;13.80;95813.00;;;;5019938;28;20723;-65
2023/09/20 07:35:47;;;;;;;0.50;0.50;;;;;13.90;95821.00;;;;5012998;28;20649;-65
2023/09/20 07:38:25;;;;;;;1.00;1.00;;;;;14.00;95810.00;;;;5013474;28;20198;-65
2023/09/20 07:40:53;;;;;;;1.13;1.13;;;;;14.20;95814.00;;;;5013437;28;20336;-65
2023/09/20 07:43:21;;;;;;;1.27;1.27;;;;;14.30;95810.00;;;;5024821;28;20287;-65
2023/09/20 07:45:49;;;;;;;1.20;1.10;;;;;14.50;95810.00;;;;5031875;28;20197;-65
2023/09/20 07:48:16;;;;;;;0.77;0.77;;;;;14.70;95809.00;;;;5013151;28;20569;-65
2023/09/20 07:50:49;;;;;;;0.50;0.50;;;;;14.90;95796.00;;;;5013522;28;20253;-65
2023/09/20 07:53:17;;;;;;;0.50;0.50;;;;;15.00;95794.00;;;;5028740;28;20188;-66
2023/09/20 07:55:48;;;;;;;0.97;0.97;;;;;15.10;95794.00;;;;5031619;28;20638;-65
2023/09/20 07:58:19;;;;;;;0.93;0.93;;;;;15.20;95791.00;;;;5032390;28;20723;-65
2023/09/20 08:00:48;;;;;;;1.00;1.00;;;;;15.40;95795.00;;;;5033000;28;20296;-65
2023/09/20 08:03:18;;;;;;;2.63;1.43;;;;;15.40;95797.00;;;;5032889;28;20307;-65
2023/09/20 08:05:48;;;;;;;0.70;0.70;;;;;15.40;95787.00;;;;5023255;28;20209;-65
2023/09/20 08:08:16;;;;;;;0.60;0.60;;;;;15.50;95793.00;;;;5012563;28;20555;-65
2023/09/20 08:10:44;;;;;;;0.83;0.83;;;;;15.70;95795.00;;;;5012830;28;20304;-65
2023/09/20 08:13:13;;;;;;;0.80;0.80;;;;;15.90;95787.00;;;;5013097;28;20691;-66
2023/09/20 08:15:42;;;;;;;0.60;0.60;;;;;16.10;95795.00;;;;5012831;28;20318;-65
2023/09/20 08:20:56;;;;;;;0.60;0.60;;;;;16.30;95792.00;;;;5008311;28;20299;-65
2023/09/20 09:02:13;;;;;;;0.80;0.80;;;;;18.10;95787.00;;;;5016024;28;20205;-66
2023/09/20 09:04:41;;;;;;;0.60;0.60;;;;;18.20;95791.00;;;;5011650;28;20190;-66
2023/09/20 09:07:09;;;;;;;0.47;0.47;;;;;18.30;95788.00;;;;5016155;28;20201;-66
2023/09/20 09:09:38;;;;;;;2.23;0.70;;;;;18.40;95792.00;;;;5014477;28;20224;-66
2023/09/20 09:12:06;;;;;;;3.70;0.90;;;;;18.20;95795.00;;;;5015689;28;20201;-66
2023/09/20 09:14:35;;;;;;;0.40;0.40;;;;;18.50;95795.00;;;;5016137;28;20691;-66
2023/09/20 09:17:03;;;;;;;0.50;0.50;;;;;18.70;95782.00;;;;5015770;28;20205;-66
2023/09/20 09:19:31;;;;;;;3.53;0.87;;;;;18.70;95786.00;;;;5029940;28;20216;-66
2023/09/20 09:21:59;;;;;;;0.60;0.60;;;;;18.80;95792.00;;;;5035490;28;20217;-66
2023/09/20 09:24:27;;;;;;;0.70;0.70;;;;;18.60;95777.00;;;;5035870;28;20327;-66
2023/09/20 09:27:06;;;;;;;0.40;0.40;;;;;18.90;95782.00;;;;5035435;28;20224;-66
2023/09/20 09:29:33;;;;;;;1.40;0.60;;;;;19.00;95782.00;;;;5012434;28;20220;-66
2023/09/20 09:32:02;;;;;;;0.60;0.60;;;;;19.00;95778.00;;;;5015526;28;20507;-66
2023/09/20 09:38:07;;;;;;;0.50;0.50;;;;;19.50;95766.00;;;;4943872;28;20221;-66
2023/09/20 09:40:51;;;;;;;0.50;0.50;;;;;19.40;95763.00;;;;5015524;28;20221;-66
2023/09/20 09:43:20;;;;;;;0.67;0.67;;;;;19.50;95756.00;;;;5012498;28;20193;-66
2023/09/20 09:45:49;;;;;;;0.60;0.60;;;;;19.80;95753.00;;;;5024121;28;20196;-66
2023/09/20 09:48:17;;;;;;;0.80;0.80;;;;;19.80;95757.00;;;;5035053;28;20208;-66
2023/09/20 09:50:47;;;;;;;1.13;0.77;;;;;19.40;95752.00;;;;5034005;28;20304;-66
2023/09/20 09:53:15;;;;;;;0.60;0.60;;;;;19.80;95756.00;;;;5034850;28;20203;-66
2023/09/20 09:55:43;;;;;;;0.77;0.77;;;;;20.00;95742.00;;;;5034758;28;20235;-66
2023/09/20 09:58:11;;;;;;;0.50;0.50;;;;;20.10;95737.00;;;;5032854;28;20205;-66
2023/09/20 10:00:41;;;;;;;0.83;0.83;;;;;20.40;95749.00;;;;5034692;28;20275;-66
2023/09/20 10:03:18;;;;;;;1.23;1.13;;;;;20.60;95755.00;;;;5021481;28;20663;-66
2023/09/20 10:05:48;;;;;;;0.50;0.50;;;;;20.90;95745.00;;;;5011399;28;20194;-66
2023/09/20 10:08:18;;;;;;;0.70;0.70;;;;;20.90;95738.00;;;;5014773;28;20204;-66
2023/09/20 10:10:45;;;;;;;0.80;0.80;;;;;20.80;95740.00;;;;5014818;28;20217;-66
2023/09/20 10:13:14;;;;;;;0.60;0.60;;;;;20.70;95740.00;;;;4995355;28;20205;-66
2023/09/20 10:15:43;;;;;;;0.50;0.50;;;;;20.80;95733.00;;;;5014909;28;20528;-66
2023/09/20 10:18:12;;;;;;;0.83;0.83;;;;;21.30;95739.00;;;;5014617;28;20197;-66
2023/09/20 10:20:58;;;;;;;0.60;0.60;;;;;21.00;95735.00;;;;5010232;28;20225;-66
2023/09/20 10:23:26;;;;;;;0.70;0.70;;;;;21.30;95733.00;;;;5014679;28;20185;-65
2023/09/20 10:26:00;;;;;;;0.73;0.73;;;;;20.60;95729.00;;;;5014801;28;20633;-65
2023/09/20 10:28:32;;;;;;;0.60;0.60;;;;;21.20;95724.00;;;;5014492;28;20190;-65
2023/09/20 10:31:04;;;;;;;0.63;0.63;;;;;21.00;95711.00;;;;5014543;28;20573;-65
2023/09/20 10:33:45;;;;;;;0.73;0.73;;;;;21.30;95701.00;;;;5014066;28;20196;-65
2023/09/20 10:36:14;;;;;;;1.03;1.03;;;;;21.80;95703.00;;;;5014345;28;20188;-65
2023/09/20 10:38:46;;;;;;;0.70;0.70;;;;;21.20;95695.00;;;;5014232;28;20205;-65
2023/09/20 10:41:13;;;;;;;0.57;0.57;;;;;21.50;95692.00;;;;4993504;28;20277;-65
2023/09/20 10:43:59;;;;;;;3.43;0.90;;;;;21.90;95685.00;;;;5014600;28;20194;-65
2023/09/20 10:46:35;;;;;;;0.80;0.80;;;;;22.10;95681.00;;;;5014303;28;20193;-64
2023/09/20 10:49:03;;;;;;;0.65;0.65;;;;;22.30;95661.00;;;;5011091;28;20185;-63
2023/09/20 10:51:48;;;;;;;0.60;0.60;;;;;22.30;95681.00;;;;5014221;28;20214;-64
2023/09/20 10:54:20;;;;;;;1.13;1.02;;;;;22.00;95672.00;;;;5011001;28;20194;-68
2023/09/20 10:57:07;;;;;;;2.83;0.65;;;;;21.70;95682.00;;;;5014000;28;20605;-68
2023/09/20 10:59:36;;;;;;;0.60;0.60;;;;;22.20;95668.00;;;;5011631;28;20746;-68
2023/09/20 11:02:12;;;;;;;1.05;1.05;;;;;22.30;95673.00;;;;5013640;28;20233;-68
2023/09/20 11:04:40;;;;;;;0.63;0.63;;;;;22.50;95667.00;;;;4995526;28;20727;-63
2023/09/20 11:07:09;;;;;;;0.50;0.50;;;;;23.00;95673.00;;;;5027293;28;20244;-64
2023/09/20 11:09:38;;;;;;;1.02;1.02;;;;;23.00;95669.00;;;;5032963;28;20196;-64
2023/09/20 11:12:11;;;;;;;0.60;0.60;;;;;23.10;95671.00;;;;5032785;28;20200;-69
2023/09/20 11:14:44;;;;;;;0.90;0.90;;;;;22.90;95674.00;;;;5033454;28;20193;-64
2023/09/20 11:17:16;;;;;;;0.63;0.63;;;;;22.90;95669.00;;;;5009511;28;20225;-64
2023/09/20 11:19:44;;;;;;;0.57;0.57;;;;;23.40;95667.00;;;;5013346;28;20206;-65
2023/09/20 11:22:14;;;;;;;0.93;0.88;;;;;23.20;95664.00;;;;5013236;28;20633;-65
2023/09/20 11:24:42;;;;;;;1.08;1.00;;;;;23.50;95667.00;;;;5013476;28;20206;-65
2023/09/20 11:27:10;;;;;;;0.90;0.90;;;;;23.80;95664.00;;;;5013120;28;20212;-65
2023/09/20 11:29:40;;;;;;;0.73;0.73;;;;;23.50;95658.00;;;;5013408;28;20663;-65
2023/09/20 11:32:11;;;;;;;1.08;0.98;;;;;23.40;95655.00;;;;5013265;28;20202;-65
2023/09/20 11:34:49;;;;;;;0.90;0.90;;;;;23.40;95660.00;;;;5013679;28;20539;-65
2023/09/20 11:37:18;;;;;;;0.57;0.57;;;;;23.70;95655.00;;;;5013166;28;20196;-65
2023/09/20 11:39:47;;;;;;;0.98;0.95;;;;;23.80;95657.00;;;;5013181;28;20221;-65
2023/09/20 11:42:25;;;;;;;0.85;0.85;;;;;23.40;95650.00;;;;5012870;28;20675;-65
2023/09/20 11:44:57;;;;;;;1.70;1.13;;;;;23.60;95653.00;;;;5009304;28;20254;-65
2023/09/20 11:47:24;;;;;;;2.55;1.33;;;;;23.20;95647.00;;;;5026108;28;20207;-65
2023/09/20 11:49:57;;;;;;;1.35;1.25;;;;;23.40;95635.00;;;;5032478;28;20197;-65
2023/09/20 11:52:24;;;;;;;0.90;0.85;;;;;23.70;95633.00;;;;5018887;28;20209;-65
2023/09/20 11:54:54;;;;;;;0.70;0.70;;;;;23.40;95625.00;;;;5012958;28;20201;-65
2023/09/20 11:57:24;;;;;;;0.60;0.60;;;;;23.20;95621.00;;;;5013004;28;20260;-65
2023/09/20 11:59:54;;;;;;;1.08;1.08;;;;;23.70;95613.00;;;;5011642;28;20228;-66
2023/09/20 12:02:21;;;;;;;0.82;0.82;;;;;23.90;95618.00;;;;5016381;28;20193;-65
2023/09/20 12:04:51;;;;;;;1.50;1.20;;;;;24.30;95613.00;;;;5032499;28;20197;-65
2023/09/20 12:07:20;;;;;;;1.38;1.27;;;;;24.80;95608.00;;;;5032308;28;20202;-65
2023/09/20 12:09:47;;;;;;;1.00;0.85;;;;;25.10;95605.00;;;;5032665;28;20532;-65
2023/09/20 12:12:16;;;;;;;0.90;0.90;;;;;25.00;95610.00;;;;5031178;28;20698;-65
2023/09/20 12:14:44;;;;;;;0.63;0.63;;;;;25.20;95609.00;;;;5008297;28;20201;-65
2023/09/20 12:17:12;;;;;;;0.93;0.88;;;;;24.90;95605.00;;;;4994211;28;20684;-65
2023/09/20 12:19:41;;;;;;;0.90;0.90;;;;;24.90;95614.00;;;;5021182;28;20329;-65
2023/09/20 12:22:08;;;;;;;0.70;0.70;;;;;24.90;95605.00;;;;5034309;28;20212;-65
2023/09/20 12:24:37;;;;;;;0.60;0.60;;;;;25.60;95598.00;;;;5039070;28;20672;-65
2023/09/20 12:27:05;;;;;;;1.05;1.05;;;;;25.50;95588.00;;;;5039190;28;20211;-65
2023/09/20 12:29:32;;;;;;;1.15;1.05;;;;;25.40;95584.00;;;;5020461;28;20201;-65
2023/09/20 12:32:00;;;;;;;0.55;0.55;;;;;25.70;95591.00;;;;5018960;28;20217;-65
2023/09/20 12:34:27;;;;;;;0.98;0.98;;;;;25.10;95588.00;;;;5028633;28;20258;-65
2023/09/20 12:36:56;;;;;;;0.98;0.98;;;;;24.50;95581.00;;;;5022901;28;20666;-65
2023/09/20 12:39:25;;;;;;;0.60;0.60;;;;;25.50;95573.00;;;;5037466;28;20208;-65
2023/09/20 12:41:53;;;;;;;0.93;0.93;;;;;25.90;95572.00;;;;5037372;28;20224;-66
2023/09/20 12:44:22;;;;;;;0.80;0.80;;;;;26.10;95571.00;;;;5019100;28;20201;-65
2023/09/20 12:46:50;;;;;;;0.88;0.88;;;;;25.80;95569.00;;;;5018926;28;20630;-65
2023/09/20 12:49:17;;;;;;;0.70;0.70;;;;;25.80;95568.00;;;;5017142;28;20205;-65
2023/09/20 12:51:44;;;;;;;0.60;0.60;;;;;25.20;95557.00;;;;5018852;28;20232;-65
2023/09/20 12:54:12;;;;;;;0.85;0.85;;;;;25.40;95558.00;;;;5031411;28;20203;-64
2023/09/20 12:56:40;;;;;;;1.30;1.30;;;;;25.80;95562.00;;;;5037581;28;20219;-66
2023/09/20 12:59:08;;;;;;;1.23;0.98;;;;;26.50;95556.00;;;;5038292;28;20227;-65
2023/09/20 13:01:36;;;;;;;0.50;0.50;;;;;26.60;95553.00;;;;5038826;28;20224;-65
2023/09/20 13:04:03;;;;;;;1.20;0.98;;;;;26.80;95554.00;;;;5038402;28;20206;-65
2023/09/20 13:06:36;;;;;;;0.52;0.52;;;;;26.90;95550.00;;;;5019368;28;20259;-64
2023/09/20 13:09:04;;;;;;;0.85;0.85;;;;;27.10;95553.00;;;;5019043;28;20610;-64
2023/09/20 13:11:31;;;;;;;0.57;0.57;;;;;27.40;95541.00;;;;5017577;28;20217;-64
2023/09/20 13:13:59;;;;;;;0.93;0.93;;;;;28.00;95544.00;;;;5032807;28;20203;-64